sensor_id;sensor_type;location;lat;lon;timestamp;temperature;humidity
3330;DHT22;1677;49.576;10.990;2023-04-01T00:01:28;9.10;99.90
3330;DHT22;1677;49.576;10.990;2023-04-01T00:03:53;9.00;99.90
3330;DHT22;1677;49.576;10.990;2023-04-01T00:06:19;9.10;99.90
3330;DHT22;1677;49.576;10.990;2023-04-01T00:08:45;9.10;99.90
3330;DHT22;1677;49.576;10.990;2023-04-01T00:11:11;9.10;99.90
3330;DHT22;1677;49.576;10.990;2023-04-01T00:13:37;9.30;99.90
3330;DHT22;1677;49.576;10.990;2023-04-01T00:16:03;9.40;99.90
3330;DHT22;1677;49.576;10.990;2023-04-01T00:18:30;9.40;99.90
3330;DHT22;1677;49.576;10.990;2023-04-01T00:20:55;9.30;99.90
3330;DHT22;1677;49.576;10.990;2023-04-01T00:23:21;9.30;99.90
3330;DHT22;1677;49.576;10.990;2023-04-01T00:25:48;9.50;99.90
3330;DHT22;1677;49.576;10.990;2023-04-01T00:28:16;9.60;99.90
3330;DHT22;1677;49.576;10.990;2023-04-01T00:30:42;9.80;99.90
3330;DHT22;1677;49.576;10.990;2023-04-01T00:33:08;9.80;99.90
3330;DHT22;1677;49.576;10.990;2023-04-01T00:35:33;9.70;99.90
3330;DHT22;1677;49.576;10.990;2023-04-01T00:37:59;9.70;99.90
3330;DHT22;1677;49.576;10.990;2023-04-01T00:40:31;9.70;99.90
3330;DHT22;1677;49.576;10.990;2023-04-01T00:42:57;9.80;99.90
3330;DHT22;1677;49.576;10.990;2023-04-01T00:45:35;9.80;99.90
3330;DHT22;1677;49.576;10.990;2023-04-01T00:48:06;9.90;99.90
3330;DHT22;1677;49.576;10.990;2023-04-01T00:50:33;9.90;99.90
3330;DHT22;1677;49.576;10.990;2023-04-01T00:53:00;10.10;99.90
3330;DHT22;1677;49.576;10.990;2023-04-01T00:55:28;10.00;99.90
3330;DHT22;1677;49.576;10.990;2023-04-01T00:57:55;10.10;99.90
3330;DHT22;1677;49.576;10.990;2023-04-01T01:00:22;10.20;99.90
3330;DHT22;1677;49.576;10.990;2023-04-01T01:02:50;10.20;99.90
3330;DHT22;1677;49.576;10.990;2023-04-01T01:05:17;10.10;99.90
3330;DHT22;1677;49.576;10.990;2023-04-01T01:08:25;10.20;99.90
3330;DHT22;1677;49.576;10.990;2023-04-01T01:10:55;10.20;99.90
3330;DHT22;1677;49.576;10.990;2023-04-01T01:13:39;10.10;99.90
3330;DHT22;1677;49.576;10.990;2023-04-01T01:16:13;10.10;99.90
3330;DHT22;1677;49.576;10.990;2023-04-01T01:19:14;10.20;99.90
3330;DHT22;1677;49.576;10.990;2023-04-01T01:21:55;10.20;99.90
3330;DHT22;1677;49.576;10.990;2023-04-01T01:27:18;10.30;99.90
3330;DHT22;1677;49.576;10.990;2023-04-01T01:29:48;10.20;99.90
3330;DHT22;1677;49.576;10.990;2023-04-01T01:32:32;10.20;99.90
3330;DHT22;1677;49.576;10.990;2023-04-01T01:37:43;10.30;99.90
3330;DHT22;1677;49.576;10.990;2023-04-01T01:40:11;10.10;99.90
3330;DHT22;1677;49.576;10.990;2023-04-01T01:42:39;10.20;99.90
3330;DHT22;1677;49.576;10.990;2023-04-01T01:45:08;10.20;99.90
3330;DHT22;1677;49.576;10.990;2023-04-01T01:47:36;10.10;99.90
3330;DHT22;1677;49.576;10.990;2023-04-01T01:50:03;10.00;99.90
3330;DHT22;1677;49.576;10.990;2023-04-01T01:52:30;10.20;99.90
3330;DHT22;1677;49.576;10.990;2023-04-01T01:54:57;10.10;99.90
3330;DHT22;1677;49.576;10.990;2023-04-01T01:57:30;10.10;99.90
3330;DHT22;1677;49.576;10.990;2023-04-01T02:00:00;10.10;99.90
3330;DHT22;1677;49.576;10.990;2023-04-01T02:02:27;10.00;99.90
3330;DHT22;1677;49.576;10.990;2023-04-01T02:04:57;9.90;99.90
3330;DHT22;1677;49.576;10.990;2023-04-01T02:07:30;9.90;99.90
3330;DHT22;1677;49.576;10.990;2023-04-01T02:09:57;10.00;99.90
3330;DHT22;1677;49.576;10.990;2023-04-01T02:12:23;10.10;99.90
3330;DHT22;1677;49.576;10.990;2023-04-01T02:14:53;10.10;99.90
3330;DHT22;1677;49.576;10.990;2023-04-01T02:17:22;10.10;99.90
3330;DHT22;1677;49.576;10.990;2023-04-01T02:20:15;10.10;99.90
3330;DHT22;1677;49.576;10.990;2023-04-01T02:23:01;10.10;99.90
3330;DHT22;1677;49.576;10.990;2023-04-01T02:25:29;10.10;99.90
3330;DHT22;1677;49.576;10.990;2023-04-01T02:27:57;10.10;99.90
3330;DHT22;1677;49.576;10.990;2023-04-01T02:30:23;10.00;99.90
3330;DHT22;1677;49.576;10.990;2023-04-01T02:32:51;10.00;99.90
3330;DHT22;1677;49.576;10.990;2023-04-01T02:35:17;10.10;99.90
3330;DHT22;1677;49.576;10.990;2023-04-01T02:37:44;10.00;99.90
3330;DHT22;1677;49.576;10.990;2023-04-01T02:40:12;10.00;99.90
3330;DHT22;1677;49.576;10.990;2023-04-01T02:42:38;10.00;99.90
3330;DHT22;1677;49.576;10.990;2023-04-01T02:45:04;10.00;99.90
3330;DHT22;1677;49.576;10.990;2023-04-01T02:47:30;10.00;99.90
3330;DHT22;1677;49.576;10.990;2023-04-01T02:49:56;10.00;99.90
3330;DHT22;1677;49.576;10.990;2023-04-01T02:52:30;10.10;99.90
3330;DHT22;1677;49.576;10.990;2023-04-01T02:54:57;10.20;99.90
3330;DHT22;1677;49.576;10.990;2023-04-01T02:57:23;10.10;99.90
3330;DHT22;1677;49.576;10.990;2023-04-01T02:59:49;10.10;99.90
3330;DHT22;1677;49.576;10.990;2023-04-01T03:02:15;10.10;99.90
3330;DHT22;1677;49.576;10.990;2023-04-01T03:04:41;10.10;99.90
3330;DHT22;1677;49.576;10.990;2023-04-01T03:07:06;10.10;99.90
3330;DHT22;1677;49.576;10.990;2023-04-01T03:09:32;10.10;99.90
3330;DHT22;1677;49.576;10.990;2023-04-01T03:11:58;10.10;99.90
3330;DHT22;1677;49.576;10.990;2023-04-01T03:14:23;10.00;99.90
3330;DHT22;1677;49.576;10.990;2023-04-01T03:16:49;10.10;99.90
3330;DHT22;1677;49.576;10.990;2023-04-01T03:19:14;10.10;99.90
3330;DHT22;1677;49.576;10.990;2023-04-01T03:21:40;10.20;99.90
3330;DHT22;1677;49.576;10.990;2023-04-01T03:24:06;10.10;99.90
3330;DHT22;1677;49.576;10.990;2023-04-01T03:26:33;10.00;99.90
3330;DHT22;1677;49.576;10.990;2023-04-01T03:28:58;10.20;99.90
3330;DHT22;1677;49.576;10.990;2023-04-01T03:31:25;10.30;99.90
3330;DHT22;1677;49.576;10.990;2023-04-01T03:33:50;10.10;99.90
3330;DHT22;1677;49.576;10.990;2023-04-01T03:36:16;10.10;99.90
3330;DHT22;1677;49.576;10.990;2023-04-01T03:38:42;10.00;99.90
3330;DHT22;1677;49.576;10.990;2023-04-01T03:41:16;10.00;99.90
3330;DHT22;1677;49.576;10.990;2023-04-01T03:43:42;9.90;99.90
3330;DHT22;1677;49.576;10.990;2023-04-01T03:46:08;9.90;99.90
3330;DHT22;1677;49.576;10.990;2023-04-01T03:48:33;10.00;99.90
3330;DHT22;1677;49.576;10.990;2023-04-01T03:50:59;9.80;99.90
3330;DHT22;1677;49.576;10.990;2023-04-01T03:53:24;9.90;99.90
3330;DHT22;1677;49.576;10.990;2023-04-01T03:55:50;9.80;99.90
3330;DHT22;1677;49.576;10.990;2023-04-01T03:58:17;9.80;99.90
3330;DHT22;1677;49.576;10.990;2023-04-01T04:00:43;10.10;99.90
3330;DHT22;1677;49.576;10.990;2023-04-01T04:03:08;10.00;99.90
3330;DHT22;1677;49.576;10.990;2023-04-01T04:05:34;9.90;99.90
3330;DHT22;1677;49.576;10.990;2023-04-01T04:08:00;9.80;99.90
3330;DHT22;1677;49.576;10.990;2023-04-01T04:10:25;9.80;99.90
3330;DHT22;1677;49.576;10.990;2023-04-01T04:12:51;9.90;99.90
3330;DHT22;1677;49.576;10.990;2023-04-01T04:15:17;9.90;99.90
3330;DHT22;1677;49.576;10.990;2023-04-01T04:17:44;9.80;99.90
3330;DHT22;1677;49.576;10.990;2023-04-01T04:20:10;9.70;99.90
3330;DHT22;1677;49.576;10.990;2023-04-01T04:22:36;9.80;99.90
3330;DHT22;1677;49.576;10.990;2023-04-01T04:25:02;9.80;99.90
3330;DHT22;1677;49.576;10.990;2023-04-01T04:27:27;9.80;99.90
3330;DHT22;1677;49.576;10.990;2023-04-01T04:29:53;9.80;99.90
3330;DHT22;1677;49.576;10.990;2023-04-01T04:32:18;9.90;99.90
3330;DHT22;1677;49.576;10.990;2023-04-01T04:34:44;9.90;99.90
3330;DHT22;1677;49.576;10.990;2023-04-01T04:37:10;9.90;99.90
3330;DHT22;1677;49.576;10.990;2023-04-01T04:39:35;9.80;99.90
3330;DHT22;1677;49.576;10.990;2023-04-01T04:42:01;9.70;99.90
3330;DHT22;1677;49.576;10.990;2023-04-01T04:44:26;9.70;99.90
3330;DHT22;1677;49.576;10.990;2023-04-01T04:46:52;9.70;99.90
3330;DHT22;1677;49.576;10.990;2023-04-01T04:49:17;9.80;99.90
3330;DHT22;1677;49.576;10.990;2023-04-01T04:51:43;9.80;99.90
3330;DHT22;1677;49.576;10.990;2023-04-01T04:54:09;9.80;99.90
3330;DHT22;1677;49.576;10.990;2023-04-01T04:56:34;9.60;99.90
3330;DHT22;1677;49.576;10.990;2023-04-01T04:59:01;9.70;99.90
3330;DHT22;1677;49.576;10.990;2023-04-01T05:01:27;9.80;99.90
3330;DHT22;1677;49.576;10.990;2023-04-01T05:03:52;9.70;99.90
3330;DHT22;1677;49.576;10.990;2023-04-01T05:06:19;9.70;99.90
3330;DHT22;1677;49.576;10.990;2023-04-01T05:08:45;9.60;99.90
3330;DHT22;1677;49.576;10.990;2023-04-01T05:11:15;9.60;99.90
3330;DHT22;1677;49.576;10.990;2023-04-01T05:13:42;9.80;99.90
3330;DHT22;1677;49.576;10.990;2023-04-01T05:16:10;9.70;99.90
3330;DHT22;1677;49.576;10.990;2023-04-01T05:18:36;9.50;99.90
3330;DHT22;1677;49.576;10.990;2023-04-01T05:21:01;9.40;99.90
3330;DHT22;1677;49.576;10.990;2023-04-01T05:23:27;9.50;99.90
3330;DHT22;1677;49.576;10.990;2023-04-01T05:25:52;9.50;99.90
3330;DHT22;1677;49.576;10.990;2023-04-01T05:28:19;9.50;99.90
3330;DHT22;1677;49.576;10.990;2023-04-01T05:30:45;9.40;99.90
3330;DHT22;1677;49.576;10.990;2023-04-01T05:33:12;9.40;99.90
3330;DHT22;1677;49.576;10.990;2023-04-01T05:35:38;9.40;99.90
3330;DHT22;1677;49.576;10.990;2023-04-01T05:38:04;9.40;99.90
3330;DHT22;1677;49.576;10.990;2023-04-01T05:40:30;9.40;99.90
3330;DHT22;1677;49.576;10.990;2023-04-01T05:42:56;9.40;99.90
3330;DHT22;1677;49.576;10.990;2023-04-01T05:45:22;9.40;99.90
3330;DHT22;1677;49.576;10.990;2023-04-01T05:47:47;9.40;99.90
3330;DHT22;1677;49.576;10.990;2023-04-01T05:50:13;9.40;99.90
3330;DHT22;1677;49.576;10.990;2023-04-01T05:52:39;9.40;99.90
3330;DHT22;1677;49.576;10.990;2023-04-01T05:55:05;9.50;99.90
3330;DHT22;1677;49.576;10.990;2023-04-01T05:57:31;9.40;99.90
3330;DHT22;1677;49.576;10.990;2023-04-01T05:59:57;9.50;99.90
3330;DHT22;1677;49.576;10.990;2023-04-01T06:02:22;9.50;99.90
3330;DHT22;1677;49.576;10.990;2023-04-01T06:04:48;9.50;99.90
3330;DHT22;1677;49.576;10.990;2023-04-01T06:07:16;9.50;99.90
3330;DHT22;1677;49.576;10.990;2023-04-01T06:09:42;9.50;99.90
3330;DHT22;1677;49.576;10.990;2023-04-01T06:23:24;9.90;99.90
3330;DHT22;1677;49.576;10.990;2023-04-01T06:34:14;10.50;99.90
3330;DHT22;1677;49.576;10.990;2023-04-01T06:42:13;10.60;99.90
3330;DHT22;1677;49.576;10.990;2023-04-01T06:50:24;11.30;99.90
3330;DHT22;1677;49.576;10.990;2023-04-01T06:55:46;11.10;99.90
3330;DHT22;1677;49.576;10.990;2023-04-01T06:58:21;11.00;99.90
3330;DHT22;1677;49.576;10.990;2023-04-01T07:00:53;11.00;99.90
3330;DHT22;1677;49.576;10.990;2023-04-01T07:03:56;10.90;99.90
3330;DHT22;1677;49.576;10.990;2023-04-01T07:06:30;10.80;99.90
3330;DHT22;1677;49.576;10.990;2023-04-01T07:08:58;10.50;99.90
3330;DHT22;1677;49.576;10.990;2023-04-01T07:11:34;10.40;99.90
3330;DHT22;1677;49.576;10.990;2023-04-01T07:14:20;10.60;99.90
3330;DHT22;1677;49.576;10.990;2023-04-01T07:17:12;10.60;99.90
3330;DHT22;1677;49.576;10.990;2023-04-01T07:19:47;10.80;99.90
3330;DHT22;1677;49.576;10.990;2023-04-01T07:22:46;10.60;99.90
3330;DHT22;1677;49.576;10.990;2023-04-01T07:27:59;10.90;99.90
3330;DHT22;1677;49.576;10.990;2023-04-01T07:30:30;10.70;99.90
3330;DHT22;1677;49.576;10.990;2023-04-01T07:33:15;10.70;99.90
3330;DHT22;1677;49.576;10.990;2023-04-01T07:38:50;11.20;99.90
3330;DHT22;1677;49.576;10.990;2023-04-01T07:47:01;11.00;99.90
3330;DHT22;1677;49.576;10.990;2023-04-01T07:55:00;11.10;99.90
3330;DHT22;1677;49.576;10.990;2023-04-01T07:57:39;10.80;99.90
3330;DHT22;1677;49.576;10.990;2023-04-01T08:00:22;10.70;99.90
3330;DHT22;1677;49.576;10.990;2023-04-01T08:03:19;11.00;99.90
3330;DHT22;1677;49.576;10.990;2023-04-01T08:05:57;11.20;99.90
3330;DHT22;1677;49.576;10.990;2023-04-01T08:08:52;11.30;99.90
3330;DHT22;1677;49.576;10.990;2023-04-01T08:11:46;11.40;99.90
3330;DHT22;1677;49.576;10.990;2023-04-01T08:14:26;11.40;99.90
3330;DHT22;1677;49.576;10.990;2023-04-01T08:17:25;11.40;99.90
3330;DHT22;1677;49.576;10.990;2023-04-01T08:20:12;11.50;99.90
3330;DHT22;1677;49.576;10.990;2023-04-01T08:22:46;11.40;99.90
3330;DHT22;1677;49.576;10.990;2023-04-01T08:25:19;11.20;99.90
3330;DHT22;1677;49.576;10.990;2023-04-01T08:27:51;11.30;99.90
3330;DHT22;1677;49.576;10.990;2023-04-01T08:30:27;11.10;99.90
3330;DHT22;1677;49.576;10.990;2023-04-01T08:33:15;11.20;99.90
3330;DHT22;1677;49.576;10.990;2023-04-01T08:36:10;11.40;99.90
3330;DHT22;1677;49.576;10.990;2023-04-01T08:38:51;11.30;99.90
3330;DHT22;1677;49.576;10.990;2023-04-01T09:06:00;11.40;99.90
3330;DHT22;1677;49.576;10.990;2023-04-01T09:08:58;11.60;99.90
3330;DHT22;1677;49.576;10.990;2023-04-01T09:15:07;11.70;99.90
3330;DHT22;1677;49.576;10.990;2023-04-01T09:27:02;11.60;99.90
3330;DHT22;1677;49.576;10.990;2023-04-01T09:35:22;11.50;99.90
3330;DHT22;1677;49.576;10.990;2023-04-01T09:40:54;11.80;99.90
3330;DHT22;1677;49.576;10.990;2023-04-01T09:43:45;11.80;99.90
3330;DHT22;1677;49.576;10.990;2023-04-01T09:46:35;11.80;99.90
3330;DHT22;1677;49.576;10.990;2023-04-01T09:49:20;11.70;99.90
3330;DHT22;1677;49.576;10.990;2023-04-01T10:00:07;11.20;99.90
3330;DHT22;1677;49.576;10.990;2023-04-01T10:16:35;11.40;99.90
3330;DHT22;1677;49.576;10.990;2023-04-01T10:19:22;11.40;99.90
3330;DHT22;1677;49.576;10.990;2023-04-01T10:22:17;11.30;99.90
3330;DHT22;1677;49.576;10.990;2023-04-01T11:08:11;11.10;99.90
3330;DHT22;1677;49.576;10.990;2023-04-01T11:30:21;10.70;99.90
3330;DHT22;1677;49.576;10.990;2023-04-01T11:32:50;10.60;99.90
3330;DHT22;1677;49.576;10.990;2023-04-01T11:43:34;11.00;99.90
3330;DHT22;1677;49.576;10.990;2023-04-01T11:46:16;11.30;99.90
3330;DHT22;1677;49.576;10.990;2023-04-01T11:57:03;11.50;99.90
3330;DHT22;1677;49.576;10.990;2023-04-01T11:59:47;11.60;99.90
3330;DHT22;1677;49.576;10.990;2023-04-01T12:28:06;11.30;99.90
3330;DHT22;1677;49.576;10.990;2023-04-01T12:30:48;11.20;99.90
3330;DHT22;1677;49.576;10.990;2023-04-01T12:47:49;11.20;99.90
3330;DHT22;1677;49.576;10.990;2023-04-01T12:50:34;11.30;99.90
3330;DHT22;1677;49.576;10.990;2023-04-01T12:55:46;11.30;99.90
3330;DHT22;1677;49.576;10.990;2023-04-01T13:17:52;11.30;99.90
3330;DHT22;1677;49.576;10.990;2023-04-01T13:20:35;11.20;99.90
3330;DHT22;1677;49.576;10.990;2023-04-01T13:23:11;11.30;99.90
3330;DHT22;1677;49.576;10.990;2023-04-01T13:25:46;11.20;99.90
3330;DHT22;1677;49.576;10.990;2023-04-01T13:28:40;11.10;99.90
3330;DHT22;1677;49.576;10.990;2023-04-01T13:36:36;10.80;99.90
3330;DHT22;1677;49.576;10.990;2023-04-01T13:39:19;10.80;99.90
3330;DHT22;1677;49.576;10.990;2023-04-01T13:42:16;11.00;99.90
3330;DHT22;1677;49.576;10.990;2023-04-01T13:44:51;11.10;99.90
3330;DHT22;1677;49.576;10.990;2023-04-01T13:53:04;11.20;99.90
3330;DHT22;1677;49.576;10.990;2023-04-01T13:55:30;11.30;99.90
3330;DHT22;1677;49.576;10.990;2023-04-01T14:00:55;11.40;99.90
3330;DHT22;1677;49.576;10.990;2023-04-01T14:03:29;11.30;99.90
3330;DHT22;1677;49.576;10.990;2023-04-01T14:06:05;11.20;99.90
3330;DHT22;1677;49.576;10.990;2023-04-01T14:14:03;11.20;99.90
3330;DHT22;1677;49.576;10.990;2023-04-01T14:19:47;11.20;99.90
3330;DHT22;1677;49.576;10.990;2023-04-01T14:25:25;11.40;99.90
3330;DHT22;1677;49.576;10.990;2023-04-01T14:33:51;11.20;99.90
3330;DHT22;1677;49.576;10.990;2023-04-01T14:40:16;11.30;99.90
3330;DHT22;1677;49.576;10.990;2023-04-01T14:48:36;11.10;99.90
3330;DHT22;1677;49.576;10.990;2023-04-01T14:51:29;11.10;99.90
3330;DHT22;1677;49.576;10.990;2023-04-01T14:54:15;11.20;99.90
3330;DHT22;1677;49.576;10.990;2023-04-01T14:57:15;11.20;99.90
3330;DHT22;1677;49.576;10.990;2023-04-01T15:02:38;10.90;99.90
3330;DHT22;1677;49.576;10.990;2023-04-01T15:05:32;11.00;99.90
3330;DHT22;1677;49.576;10.990;2023-04-01T15:08:09;10.90;99.90
3330;DHT22;1677;49.576;10.990;2023-04-01T15:13:15;11.00;99.90
3330;DHT22;1677;49.576;10.990;2023-04-01T15:24:47;11.00;99.90
3330;DHT22;1677;49.576;10.990;2023-04-01T15:29:52;11.10;99.90
3330;DHT22;1677;49.576;10.990;2023-04-01T15:32:37;11.10;99.90
3330;DHT22;1677;49.576;10.990;2023-04-01T15:39:00;11.10;99.90
3330;DHT22;1677;49.576;10.990;2023-04-01T15:41:14;11.10;99.90
3330;DHT22;1677;49.576;10.990;2023-04-01T15:43:43;11.20;99.90
3330;DHT22;1677;49.576;10.990;2023-04-01T15:46:46;11.00;99.90
3330;DHT22;1677;49.576;10.990;2023-04-01T15:49:36;10.90;99.90
3330;DHT22;1677;49.576;10.990;2023-04-01T16:03:14;11.30;99.90
3330;DHT22;1677;49.576;10.990;2023-04-01T16:14:48;10.90;99.90
3330;DHT22;1677;49.576;10.990;2023-04-01T16:20:22;10.80;99.90
3330;DHT22;1677;49.576;10.990;2023-04-01T16:23:00;10.70;99.90
3330;DHT22;1677;49.576;10.990;2023-04-01T16:25:39;10.80;99.90
3330;DHT22;1677;49.576;10.990;2023-04-01T16:31:32;10.60;99.90
3330;DHT22;1677;49.576;10.990;2023-04-01T16:34:14;10.50;99.90
3330;DHT22;1677;49.576;10.990;2023-04-01T16:36:52;10.50;99.90
3330;DHT22;1677;49.576;10.990;2023-04-01T16:47:53;10.30;99.90
3330;DHT22;1677;49.576;10.990;2023-04-01T16:50:25;10.30;99.90
3330;DHT22;1677;49.576;10.990;2023-04-01T16:56:07;10.30;99.90
3330;DHT22;1677;49.576;10.990;2023-04-01T16:58:56;10.40;99.90
3330;DHT22;1677;49.576;10.990;2023-04-01T17:04:36;10.20;99.90
3330;DHT22;1677;49.576;10.990;2023-04-01T17:07:26;10.20;99.90
3330;DHT22;1677;49.576;10.990;2023-04-01T17:10:10;10.20;99.90
3330;DHT22;1677;49.576;10.990;2023-04-01T17:15:38;10.30;99.90
3330;DHT22;1677;49.576;10.990;2023-04-01T17:18:09;10.20;99.90
3330;DHT22;1677;49.576;10.990;2023-04-01T17:20:59;10.20;99.90
3330;DHT22;1677;49.576;10.990;2023-04-01T17:23:38;10.20;99.90
3330;DHT22;1677;49.576;10.990;2023-04-01T17:34:54;10.10;99.90
3330;DHT22;1677;49.576;10.990;2023-04-01T17:45:56;10.10;99.90
3330;DHT22;1677;49.576;10.990;2023-04-01T17:49:16;10.10;99.90
3330;DHT22;1677;49.576;10.990;2023-04-01T17:54:26;10.00;99.90
3330;DHT22;1677;49.576;10.990;2023-04-01T17:59:44;10.00;99.90
3330;DHT22;1677;49.576;10.990;2023-04-01T18:10:41;10.00;99.90
3330;DHT22;1677;49.576;10.990;2023-04-01T18:16:28;10.00;99.90
3330;DHT22;1677;49.576;10.990;2023-04-01T18:21:45;9.90;99.90
3330;DHT22;1677;49.576;10.990;2023-04-01T18:24:28;9.90;99.90
3330;DHT22;1677;49.576;10.990;2023-04-01T18:27:04;9.80;99.90
3330;DHT22;1677;49.576;10.990;2023-04-01T18:30:00;9.80;99.90
3330;DHT22;1677;49.576;10.990;2023-04-01T18:32:49;9.80;99.90
3330;DHT22;1677;49.576;10.990;2023-04-01T18:41:10;9.80;99.90
3330;DHT22;1677;49.576;10.990;2023-04-01T18:46:52;9.90;99.90
3330;DHT22;1677;49.576;10.990;2023-04-01T18:49:42;9.80;99.90
3330;DHT22;1677;49.576;10.990;2023-04-01T18:52:16;9.80;99.90
3330;DHT22;1677;49.576;10.990;2023-04-01T18:57:47;10.00;99.90
3330;DHT22;1677;49.576;10.990;2023-04-01T19:00:22;9.90;99.90
3330;DHT22;1677;49.576;10.990;2023-04-01T19:03:10;9.80;99.90
3330;DHT22;1677;49.576;10.990;2023-04-01T19:05:41;9.80;99.90
3330;DHT22;1677;49.576;10.990;2023-04-01T19:08:31;9.80;99.90
3330;DHT22;1677;49.576;10.990;2023-04-01T19:11:09;9.80;99.90
3330;DHT22;1677;49.576;10.990;2023-04-01T19:16:49;9.70;99.90
3330;DHT22;1677;49.576;10.990;2023-04-01T19:21:53;9.80;99.90
3330;DHT22;1677;49.576;10.990;2023-04-01T19:32:42;9.90;99.90
3330;DHT22;1677;49.576;10.990;2023-04-01T19:35:23;10.00;99.90
3330;DHT22;1677;49.576;10.990;2023-04-01T19:38:19;9.90;99.90
3330;DHT22;1677;49.576;10.990;2023-04-01T19:43:53;9.90;99.90
3330;DHT22;1677;49.576;10.990;2023-04-01T19:46:48;9.80;99.90
3330;DHT22;1677;49.576;10.990;2023-04-01T19:54:35;9.80;99.90
3330;DHT22;1677;49.576;10.990;2023-04-01T19:57:22;9.80;99.90
3330;DHT22;1677;49.576;10.990;2023-04-01T20:00:07;9.80;99.90
3330;DHT22;1677;49.576;10.990;2023-04-01T20:05:35;9.70;99.90
3330;DHT22;1677;49.576;10.990;2023-04-01T20:16:08;9.90;99.90
3330;DHT22;1677;49.576;10.990;2023-04-01T20:18:58;9.80;99.90
3330;DHT22;1677;49.576;10.990;2023-04-01T20:21:41;9.90;99.90
3330;DHT22;1677;49.576;10.990;2023-04-01T20:26:43;10.00;99.90
3330;DHT22;1677;49.576;10.990;2023-04-01T20:40:53;10.00;99.90
3330;DHT22;1677;49.576;10.990;2023-04-01T20:43:52;10.00;99.90
3330;DHT22;1677;49.576;10.990;2023-04-01T20:51:54;9.90;99.90
3330;DHT22;1677;49.576;10.990;2023-04-01T21:03:10;9.80;99.90
3330;DHT22;1677;49.576;10.990;2023-04-01T21:11:28;9.80;99.90
3330;DHT22;1677;49.576;10.990;2023-04-01T21:14:40;9.80;99.90
3330;DHT22;1677;49.576;10.990;2023-04-01T21:23:39;10.00;99.90
3330;DHT22;1677;49.576;10.990;2023-04-01T21:26:26;10.00;99.90
3330;DHT22;1677;49.576;10.990;2023-04-01T21:31:27;9.90;99.90
3330;DHT22;1677;49.576;10.990;2023-04-01T21:34:31;9.90;99.90
3330;DHT22;1677;49.576;10.990;2023-04-01T21:37:04;10.00;99.90
3330;DHT22;1677;49.576;10.990;2023-04-01T21:39:57;10.00;99.90
3330;DHT22;1677;49.576;10.990;2023-04-01T21:50:55;9.80;99.90
3330;DHT22;1677;49.576;10.990;2023-04-01T21:56:28;9.90;99.90
3330;DHT22;1677;49.576;10.990;2023-04-01T22:02:04;9.90;99.90
3330;DHT22;1677;49.576;10.990;2023-04-01T22:22:52;9.80;99.90
3330;DHT22;1677;49.576;10.990;2023-04-01T22:28:07;9.90;99.90
3330;DHT22;1677;49.576;10.990;2023-04-01T22:30:40;10.00;99.90
3330;DHT22;1677;49.576;10.990;2023-04-01T22:33:19;9.90;99.90
3330;DHT22;1677;49.576;10.990;2023-04-01T22:35:53;9.90;99.90
3330;DHT22;1677;49.576;10.990;2023-04-01T22:41:05;9.90;99.90
3330;DHT22;1677;49.576;10.990;2023-04-01T22:43:42;9.90;99.90
3330;DHT22;1677;49.576;10.990;2023-04-01T22:47:00;9.80;99.90
3330;DHT22;1677;49.576;10.990;2023-04-01T22:49:40;9.80;99.90
3330;DHT22;1677;49.576;10.990;2023-04-01T22:54:49;9.80;99.90
3330;DHT22;1677;49.576;10.990;2023-04-01T23:00:04;9.90;99.90
3330;DHT22;1677;49.576;10.990;2023-04-01T23:02:39;9.80;99.90
3330;DHT22;1677;49.576;10.990;2023-04-01T23:05:10;9.90;99.90
3330;DHT22;1677;49.576;10.990;2023-04-01T23:10:42;10.00;99.90
3330;DHT22;1677;49.576;10.990;2023-04-01T23:13:14;10.00;99.90
3330;DHT22;1677;49.576;10.990;2023-04-01T23:15:42;10.00;99.90
3330;DHT22;1677;49.576;10.990;2023-04-01T23:23:45;9.70;99.90
3330;DHT22;1677;49.576;10.990;2023-04-01T23:26:18;9.70;99.90
3330;DHT22;1677;49.576;10.990;2023-04-01T23:28:49;9.80;99.90
3330;DHT22;1677;49.576;10.990;2023-04-01T23:31:26;9.80;99.90
3330;DHT22;1677;49.576;10.990;2023-04-01T23:34:02;9.80;99.90
3330;DHT22;1677;49.576;10.990;2023-04-01T23:36:30;9.80;99.90
3330;DHT22;1677;49.576;10.990;2023-04-01T23:38:56;9.80;99.90
3330;DHT22;1677;49.576;10.990;2023-04-01T23:41:28;9.80;99.90
3330;DHT22;1677;49.576;10.990;2023-04-01T23:44:11;9.70;99.90
3330;DHT22;1677;49.576;10.990;2023-04-01T23:46:40;9.80;99.90
3330;DHT22;1677;49.576;10.990;2023-04-01T23:49:13;9.70;99.90
3330;DHT22;1677;49.576;10.990;2023-04-01T23:51:53;9.70;99.90
3330;DHT22;1677;49.576;10.990;2023-04-01T23:54:32;9.70;99.90
3330;DHT22;1677;49.576;10.990;2023-04-01T23:56:58;9.70;99.90
3330;DHT22;1677;49.576;10.990;2023-04-01T23:59:30;9.70;99.90
